Terminal Aerodrome Forecast
Issued by NWS Albany, NY

Home | Current Version | Previous Version | Text Only | Print | Product List | Glossary On
Versions: 1 2 3 4 5 6 7 8 9 10 11 12 13 14 15 16 17 18 19 20
000
FTUS41 KALY 291722
TAFALB
TAF
KALB 291722Z 2918/3018 18006KT P6SM SCT050 BKN250
      TEMPO 2918/2922 BKN050 BKN250
     FM300300 VRB03KT P6SM SCT050 SCT120 BKN250
     FM300900 00000KT P6SM SCT050 BKN100
     FM301300 25004KT P6SM BKN050 BKN100=

USA.gov is the U.S. government's official web portal to all federal, state and local government web resources and services.